• Join FlightAware (Why Join?)
  • Login
  • US Flag 
06:32PM EDT


 

Airport Tracker/Info


-or-


 

Live Flight TrackerFlight Track Log ✈ CUA5905 ✈ 10-Dec-2013 ✈ ZBNY / NAY - ZSLG / LYG

Flight Track Log - Related Links

Times and Time Zones

All times are in EST time to prevent confusion due to time zone crossing. See the CUA5905 flight status page for this flight to view local times or setup timezone preferences in your user account.

Time Position Orientation Groundspeed Altitude Reporting Facility
EST Latitude Longitude Course Direction KTS MPH feet Rate Location/Type
11:02PM 38.9439 116.8112 158° South  Level Estimated
11:03PM 38.8603 116.8532 159° South  Level Estimated
11:04PM 38.7766 116.8950 159° South  Level Estimated
11:05PM 38.6930 116.9367 159° South  Level Estimated
11:06PM 38.6093 116.9784 159° South  Level Estimated
11:07PM 38.5256 117.0199 159° South  Level Estimated
11:08PM 38.4419 117.0613 159° South  Level Estimated
11:09PM 38.3581 117.1027 159° South  Level Estimated
11:10PM 38.2744 117.1439 159° South  Level Estimated
11:11PM 38.1906 117.1851 159° South  Level Estimated
11:12PM 38.1069 117.2262 159° South  Level Estimated
11:13PM 38.0231 117.2671 159° South  Level Estimated
11:14PM 37.9393 117.3080 159° South  Level Estimated
11:15PM 37.8555 117.3488 159° South  Level Estimated
11:16PM 37.7716 117.3895 159° South  Level Estimated
11:17PM 37.6878 117.4301 159° South  Level Estimated
11:18PM 37.6040 117.4706 159° South  Level Estimated
11:19PM 37.5201 117.5110 159° South  Level Estimated
11:20PM 37.4362 117.5513 159° South  Level Estimated
11:21PM 37.3523 117.5915 159° South  Level Estimated
11:22PM 37.2684 117.6317 159° South  Level Estimated
11:23PM 37.1845 117.6717 159° South  Level Estimated
11:24PM 37.1006 117.7117 159° South  Level Estimated
11:25PM 37.0166 117.7516 159° South  Level Estimated
11:26PM 36.9326 117.7914 159° South  Level Estimated
11:27PM 36.8487 117.8310 159° South  Level Estimated
11:28PM 36.7647 117.8707 159° South  Level Estimated
11:29PM 36.6807 117.9102 159° South  Level Estimated
11:30PM 36.5967 117.9496 159° South  Level Estimated
11:31PM 36.5126 117.9890 159° South  Level Estimated
11:32PM 36.4286 118.0283 159° South  Level Estimated
11:33PM 36.3445 118.0674 159° South  Level Estimated
11:34PM 36.2605 118.1065 159° South  Level Estimated
11:35PM 36.1764 118.1456 159° South  Level Estimated
11:36PM 36.0923 118.1845 159° South  Level Estimated
11:37PM 36.0082 118.2233 160° South  Level Estimated
11:38PM 35.9241 118.2621 160° South  Level Estimated
11:39PM 35.8400 118.3008 160° South  Level Estimated
11:40PM 35.7558 118.3394 160° South  Level Estimated
11:41PM 35.6717 118.3779 160° South  Level Estimated
11:42PM 35.5938 118.4135 160° South  Level Estimated
11:43PM 35.5159 118.4490 160° South  Level Estimated
11:44PM 35.4380 118.4844 160° South  Level Estimated
11:45PM 35.3601 118.5198 160° South  Level Estimated
11:46PM 35.2821 118.5551 160° South  Level Estimated
11:47PM 35.2042 118.5903 160° South  Level Estimated
11:48PM 35.1263 118.6255 160° South  Level Estimated
11:49PM 35.0483 118.6606 160° South  Level Estimated
11:50PM 34.9703 118.6956 160° South  Level Estimated
11:51PM 34.8923 118.7306 160° South  Level Estimated
11:52PM 34.8144 118.7655 160° South  Level Estimated
11:53PM 34.7364 118.8003 160° South  Level Estimated
11:54PM 34.6584 118.8351 160° South  Level Estimated
11:55PM 34.5803 118.8698 160° South  Level Estimated
11:56PM 34.5717 118.8736 160° South  Level Estimated
11:57PM 34.5717 118.8736 165° South  Level Estimated
11:58PM 34.5717 118.8736 165° South  Level Estimated
11:59PM 34.5717 118.8736 165° South  Level Estimated
12:00AM 34.5717 118.8736 165° South  Level Estimated
12:01AM 34.5717 118.8736 165° South  Level Estimated
12:02AM 34.5717 118.8736 165° South  Level Estimated
12:03AM 34.5717 118.8736 165° South  Level Estimated
12:04AM 34.5717 118.8736 165° South  Level Estimated
12:05AM 34.5717 118.8736 165° South  Level Estimated
12:06AM 34.5717 118.8736 165° South  Level Estimated
12:07AM 34.5717 118.8736 165° South  Level Estimated
12:08AM 34.5717 118.8736 165° South  Level Estimated
12:09AM 34.5717 118.8736 165° South  Level Estimated
12:10AM 34.5717 118.8736 165° South  Level Estimated